Airfield :







YOU CAN JOIN US ON...

 
LOGIN :

Register | Disclaimer

   EN    FR    IT 

 









Legend :    VFR   Marginal VFR   IFR   Intensive IFR   Very Intensive IFR
Visi :
Ceiling :
>= 8 km
>= 3000ft
5 to 8 km
1000 to 3000 ft
1500m to 5 km
500 to 1000 ft
800 to 1500m
200 to 500 ft
< 800m
< 200 ft
Symbols :   Thunderstorms  Fog  Heavy snow  Heavy precipitations  Wind > 20 kt






- Airport Elevation : 54 ft
- IATA code : BEL


SBBE - Val de Cans Int.

CURRENT METAR :
  • 072300Z 12002KT 9999 -RA SCT020 FEW025TCU BKN100 25/24 Q1011

EXPIRED METARs :
  • 072200Z 09005KT 9999 -RA SCT020 FEW025TCU BKN100 25/24 Q1010RETS
  • 072100Z 09005KT 4500 -TSRA SCT015 BKN017 FEW023CB BKN100 26/26 Q1010

TAF TAF SBBE
Valid from the 08 at 00:00 until the 09 at 00:00 UTC


072100Z 0800/0824 10008KT 9999 SCT030 TN24/0807Z TX31/0816Z
BECMG 0802/0804 CAVOK
BECMG 0810/0812 9999 SCT008
BECMG 0812/0814 SCT020
BECMG 0818/0820 SCT020 FEW025TCU
BECMG 0822/0824 8000 TSRA SCT020 FEW025CB RMK PED



MET'MAP, your aeronautical weather chart ! - Copyright ORBIFLY December 2007 - Disclaimer

ORBIFLY MET'MAP TEAM :

Programming & Development : Alexandra Zaïnal
Concept & original design : Baudouin d'Aumeries
Assistance for programming : Marc-Olivier Méhu
Technical & hardware support : Manuel Goepfert

Contact : metmap@orbifly.com




SOURCES & CREDITS :

   NOAA